sensor_id;sensor_type;location;lat;lon;timestamp;temperature;humidity
15700;DHT22;7950;42.744;23.174;2023-03-05T00:01:31;6.40;99.90
15700;DHT22;7950;42.744;23.174;2023-03-05T00:04:02;6.40;99.90
15700;DHT22;7950;42.744;23.174;2023-03-05T00:06:33;6.40;99.90
15700;DHT22;7950;42.744;23.174;2023-03-05T00:09:03;6.40;99.90
15700;DHT22;7950;42.744;23.174;2023-03-05T00:11:33;6.30;99.90
15700;DHT22;7950;42.744;23.174;2023-03-05T00:14:02;6.30;99.90
15700;DHT22;7950;42.744;23.174;2023-03-05T00:16:32;6.30;99.90
15700;DHT22;7950;42.744;23.174;2023-03-05T00:19:01;6.20;99.90
15700;DHT22;7950;42.744;23.174;2023-03-05T00:21:58;6.20;99.90
15700;DHT22;7950;42.744;23.174;2023-03-05T00:24:28;6.20;99.90
15700;DHT22;7950;42.744;23.174;2023-03-05T00:26:56;6.30;99.90
15700;DHT22;7950;42.744;23.174;2023-03-05T00:29:25;6.30;99.90
15700;DHT22;7950;42.744;23.174;2023-03-05T00:31:57;6.30;99.90
15700;DHT22;7950;42.744;23.174;2023-03-05T00:34:26;6.30;99.90
15700;DHT22;7950;42.744;23.174;2023-03-05T00:36:55;6.30;99.90
15700;DHT22;7950;42.744;23.174;2023-03-05T00:39:24;6.30;99.90
15700;DHT22;7950;42.744;23.174;2023-03-05T00:42:18;6.30;99.90
15700;DHT22;7950;42.744;23.174;2023-03-05T00:44:50;6.30;99.90
15700;DHT22;7950;42.744;23.174;2023-03-05T00:47:18;6.30;99.90
15700;DHT22;7950;42.744;23.174;2023-03-05T00:49:47;6.30;99.90
15700;DHT22;7950;42.744;23.174;2023-03-05T00:52:41;6.30;99.90
15700;DHT22;7950;42.744;23.174;2023-03-05T00:55:09;6.30;99.90
15700;DHT22;7950;42.744;23.174;2023-03-05T00:57:39;6.30;99.90
15700;DHT22;7950;42.744;23.174;2023-03-05T01:00:10;6.30;99.90
15700;DHT22;7950;42.744;23.174;2023-03-05T01:02:40;6.30;99.90
15700;DHT22;7950;42.744;23.174;2023-03-05T01:05:10;6.30;99.90
15700;DHT22;7950;42.744;23.174;2023-03-05T01:07:40;6.30;99.90
15700;DHT22;7950;42.744;23.174;2023-03-05T01:10:10;6.30;99.90
15700;DHT22;7950;42.744;23.174;2023-03-05T01:12:41;6.30;99.90
15700;DHT22;7950;42.744;23.174;2023-03-05T01:15:09;6.30;99.90
15700;DHT22;7950;42.744;23.174;2023-03-05T01:17:38;6.30;99.90
15700;DHT22;7950;42.744;23.174;2023-03-05T01:20:08;6.30;99.90
15700;DHT22;7950;42.744;23.174;2023-03-05T01:23:04;6.30;99.90
15700;DHT22;7950;42.744;23.174;2023-03-05T01:25:32;6.30;99.90
15700;DHT22;7950;42.744;23.174;2023-03-05T01:28:02;6.30;99.90
15700;DHT22;7950;42.744;23.174;2023-03-05T01:30:32;6.30;99.90
15700;DHT22;7950;42.744;23.174;2023-03-05T01:33:01;6.30;99.90
15700;DHT22;7950;42.744;23.174;2023-03-05T01:35:29;6.30;99.90
15700;DHT22;7950;42.744;23.174;2023-03-05T01:37:58;6.30;99.90
15700;DHT22;7950;42.744;23.174;2023-03-05T01:40:28;6.30;99.90
15700;DHT22;7950;42.744;23.174;2023-03-05T01:42:59;6.30;99.90
15700;DHT22;7950;42.744;23.174;2023-03-05T01:49:11;6.20;99.90
15700;DHT22;7950;42.744;23.174;2023-03-05T01:51:50;6.20;99.90
15700;DHT22;7950;42.744;23.174;2023-03-05T01:54:30;6.20;99.90
15700;DHT22;7950;42.744;23.174;2023-03-05T01:57:07;6.10;99.90
15700;DHT22;7950;42.744;23.174;2023-03-05T01:59:40;6.10;99.90
15700;DHT22;7950;42.744;23.174;2023-03-05T02:02:36;6.10;99.90
15700;DHT22;7950;42.744;23.174;2023-03-05T02:05:07;6.10;99.90
15700;DHT22;7950;42.744;23.174;2023-03-05T02:08:05;6.10;99.90
15700;DHT22;7950;42.744;23.174;2023-03-05T02:10:37;6.10;99.90
15700;DHT22;7950;42.744;23.174;2023-03-05T02:13:09;6.10;99.90
15700;DHT22;7950;42.744;23.174;2023-03-05T02:15:42;6.10;99.90
15700;DHT22;7950;42.744;23.174;2023-03-05T02:18:13;6.10;99.90
15700;DHT22;7950;42.744;23.174;2023-03-05T02:20:44;6.10;99.90
15700;DHT22;7950;42.744;23.174;2023-03-05T02:23:16;6.10;99.90
15700;DHT22;7950;42.744;23.174;2023-03-05T02:25:46;6.10;99.90
15700;DHT22;7950;42.744;23.174;2023-03-05T02:28:19;6.00;99.90
15700;DHT22;7950;42.744;23.174;2023-03-05T02:30:51;5.90;99.90
15700;DHT22;7950;42.744;23.174;2023-03-05T02:33:20;5.90;99.90
15700;DHT22;7950;42.744;23.174;2023-03-05T02:36:15;5.90;99.90
15700;DHT22;7950;42.744;23.174;2023-03-05T02:38:46;5.90;99.90
15700;DHT22;7950;42.744;23.174;2023-03-05T02:41:15;5.90;99.90
15700;DHT22;7950;42.744;23.174;2023-03-05T02:43:52;5.90;99.90
15700;DHT22;7950;42.744;23.174;2023-03-05T02:46:20;5.90;99.90
15700;DHT22;7950;42.744;23.174;2023-03-05T02:48:49;5.90;99.90
15700;DHT22;7950;42.744;23.174;2023-03-05T02:51:17;5.90;99.90
15700;DHT22;7950;42.744;23.174;2023-03-05T02:53:47;5.90;99.90
15700;DHT22;7950;42.744;23.174;2023-03-05T02:56:16;5.80;99.90
15700;DHT22;7950;42.744;23.174;2023-03-05T02:58:44;5.90;99.90
15700;DHT22;7950;42.744;23.174;2023-03-05T03:01:38;5.80;99.90
15700;DHT22;7950;42.744;23.174;2023-03-05T03:04:06;5.80;99.90
15700;DHT22;7950;42.744;23.174;2023-03-05T03:06:35;5.80;99.90
15700;DHT22;7950;42.744;23.174;2023-03-05T03:09:05;5.80;99.90
15700;DHT22;7950;42.744;23.174;2023-03-05T03:11:33;5.80;99.90
15700;DHT22;7950;42.744;23.174;2023-03-05T03:14:02;5.80;99.90
15700;DHT22;7950;42.744;23.174;2023-03-05T03:16:55;5.70;99.90
15700;DHT22;7950;42.744;23.174;2023-03-05T03:19:23;5.70;99.90
15700;DHT22;7950;42.744;23.174;2023-03-05T03:21:52;5.70;99.90
15700;DHT22;7950;42.744;23.174;2023-03-05T03:24:22;5.70;99.90
15700;DHT22;7950;42.744;23.174;2023-03-05T03:26:50;5.70;99.90
15700;DHT22;7950;42.744;23.174;2023-03-05T03:29:19;5.70;99.90
15700;DHT22;7950;42.744;23.174;2023-03-05T03:31:47;5.70;99.90
15700;DHT22;7950;42.744;23.174;2023-03-05T03:34:17;5.60;99.90
15700;DHT22;7950;42.744;23.174;2023-03-05T03:36:47;5.70;99.90
15700;DHT22;7950;42.744;23.174;2023-03-05T03:39:16;5.70;99.90
15700;DHT22;7950;42.744;23.174;2023-03-05T03:41:51;5.70;99.90
15700;DHT22;7950;42.744;23.174;2023-03-05T03:44:20;5.70;99.90
15700;DHT22;7950;42.744;23.174;2023-03-05T03:46:50;5.70;99.90
15700;DHT22;7950;42.744;23.174;2023-03-05T03:49:21;5.60;99.90
15700;DHT22;7950;42.744;23.174;2023-03-05T03:51:52;5.60;99.90
15700;DHT22;7950;42.744;23.174;2023-03-05T03:54:22;5.60;99.90
15700;DHT22;7950;42.744;23.174;2023-03-05T03:57:17;5.60;99.90
15700;DHT22;7950;42.744;23.174;2023-03-05T03:59:46;5.60;99.90
15700;DHT22;7950;42.744;23.174;2023-03-05T04:02:16;5.60;99.90
15700;DHT22;7950;42.744;23.174;2023-03-05T04:04:45;5.60;99.90
15700;DHT22;7950;42.744;23.174;2023-03-05T04:07:14;5.60;99.90
15700;DHT22;7950;42.744;23.174;2023-03-05T04:09:42;5.50;99.90
15700;DHT22;7950;42.744;23.174;2023-03-05T04:12:11;5.50;99.90
15700;DHT22;7950;42.744;23.174;2023-03-05T04:14:46;5.50;99.90
15700;DHT22;7950;42.744;23.174;2023-03-05T04:17:16;5.50;99.90
15700;DHT22;7950;42.744;23.174;2023-03-05T04:19:44;5.40;99.90
15700;DHT22;7950;42.744;23.174;2023-03-05T04:22:15;5.40;99.90
15700;DHT22;7950;42.744;23.174;2023-03-05T04:24:44;5.40;99.90
15700;DHT22;7950;42.744;23.174;2023-03-05T04:27:13;5.40;99.90
15700;DHT22;7950;42.744;23.174;2023-03-05T04:29:42;5.40;99.90
15700;DHT22;7950;42.744;23.174;2023-03-05T04:32:12;5.40;99.90
15700;DHT22;7950;42.744;23.174;2023-03-05T04:34:40;5.40;99.90
15700;DHT22;7950;42.744;23.174;2023-03-05T04:37:09;5.40;99.90
15700;DHT22;7950;42.744;23.174;2023-03-05T04:39:37;5.40;99.90
15700;DHT22;7950;42.744;23.174;2023-03-05T04:42:06;5.40;99.90
15700;DHT22;7950;42.744;23.174;2023-03-05T04:44:36;5.40;99.90
15700;DHT22;7950;42.744;23.174;2023-03-05T04:47:05;5.40;99.90
15700;DHT22;7950;42.744;23.174;2023-03-05T04:49:35;5.40;99.90
15700;DHT22;7950;42.744;23.174;2023-03-05T04:52:03;5.40;99.90
15700;DHT22;7950;42.744;23.174;2023-03-05T04:54:32;5.40;99.90
15700;DHT22;7950;42.744;23.174;2023-03-05T04:57:00;5.30;99.90
15700;DHT22;7950;42.744;23.174;2023-03-05T04:59:29;5.30;99.90
15700;DHT22;7950;42.744;23.174;2023-03-05T05:01:58;5.30;99.90
15700;DHT22;7950;42.744;23.174;2023-03-05T05:04:26;5.30;99.90
15700;DHT22;7950;42.744;23.174;2023-03-05T05:07:00;5.20;99.90
15700;DHT22;7950;42.744;23.174;2023-03-05T05:09:29;5.30;99.90
15700;DHT22;7950;42.744;23.174;2023-03-05T05:11:57;5.30;99.90
15700;DHT22;7950;42.744;23.174;2023-03-05T05:14:26;5.20;99.90
15700;DHT22;7950;42.744;23.174;2023-03-05T05:16:54;5.30;99.90
15700;DHT22;7950;42.744;23.174;2023-03-05T05:19:48;5.20;99.90
15700;DHT22;7950;42.744;23.174;2023-03-05T05:22:18;5.20;99.90
15700;DHT22;7950;42.744;23.174;2023-03-05T05:24:46;5.20;99.90
15700;DHT22;7950;42.744;23.174;2023-03-05T05:27:15;5.20;99.90
15700;DHT22;7950;42.744;23.174;2023-03-05T05:29:44;5.20;99.90
15700;DHT22;7950;42.744;23.174;2023-03-05T05:32:16;5.20;99.90
15700;DHT22;7950;42.744;23.174;2023-03-05T05:34:44;5.30;99.90
15700;DHT22;7950;42.744;23.174;2023-03-05T05:37:13;5.30;99.90
15700;DHT22;7950;42.744;23.174;2023-03-05T05:39:43;5.20;99.90
15700;DHT22;7950;42.744;23.174;2023-03-05T05:42:16;5.30;99.90
15700;DHT22;7950;42.744;23.174;2023-03-05T05:44:45;5.30;99.90
15700;DHT22;7950;42.744;23.174;2023-03-05T05:47:14;5.30;99.90
15700;DHT22;7950;42.744;23.174;2023-03-05T05:49:43;5.30;99.90
15700;DHT22;7950;42.744;23.174;2023-03-05T05:52:12;5.30;99.90
15700;DHT22;7950;42.744;23.174;2023-03-05T05:54:41;5.30;99.90
15700;DHT22;7950;42.744;23.174;2023-03-05T05:57:10;5.30;99.90
15700;DHT22;7950;42.744;23.174;2023-03-05T05:59:40;5.30;99.90
15700;DHT22;7950;42.744;23.174;2023-03-05T06:02:09;5.30;99.90
15700;DHT22;7950;42.744;23.174;2023-03-05T06:04:38;5.30;99.90
15700;DHT22;7950;42.744;23.174;2023-03-05T06:07:06;5.40;99.90
15700;DHT22;7950;42.744;23.174;2023-03-05T06:09:35;5.40;99.90
15700;DHT22;7950;42.744;23.174;2023-03-05T06:12:06;5.40;99.90
15700;DHT22;7950;42.744;23.174;2023-03-05T06:14:35;5.40;99.90
15700;DHT22;7950;42.744;23.174;2023-03-05T06:17:03;5.40;99.90
15700;DHT22;7950;42.744;23.174;2023-03-05T06:19:32;5.50;99.90
15700;DHT22;7950;42.744;23.174;2023-03-05T06:22:00;5.50;99.90
15700;DHT22;7950;42.744;23.174;2023-03-05T06:24:29;5.50;99.90
15700;DHT22;7950;42.744;23.174;2023-03-05T06:26:57;5.50;99.90
15700;DHT22;7950;42.744;23.174;2023-03-05T06:29:27;5.50;99.90
15700;DHT22;7950;42.744;23.174;2023-03-05T06:31:56;5.60;99.90
15700;DHT22;7950;42.744;23.174;2023-03-05T06:34:24;5.60;99.90
15700;DHT22;7950;42.744;23.174;2023-03-05T06:36:53;5.70;99.90
15700;DHT22;7950;42.744;23.174;2023-03-05T06:39:21;5.70;99.90
15700;DHT22;7950;42.744;23.174;2023-03-05T06:42:15;5.70;99.90
15700;DHT22;7950;42.744;23.174;2023-03-05T06:44:46;5.80;99.90
15700;DHT22;7950;42.744;23.174;2023-03-05T06:47:15;5.90;99.90
15700;DHT22;7950;42.744;23.174;2023-03-05T06:49:43;6.00;99.90
15700;DHT22;7950;42.744;23.174;2023-03-05T06:52:12;6.30;99.90
15700;DHT22;7950;42.744;23.174;2023-03-05T06:55:03;6.60;99.90
15700;DHT22;7950;42.744;23.174;2023-03-05T06:57:32;7.00;99.90
15700;DHT22;7950;42.744;23.174;2023-03-05T07:00:03;7.20;99.90
15700;DHT22;7950;42.744;23.174;2023-03-05T07:02:36;7.50;99.90
15700;DHT22;7950;42.744;23.174;2023-03-05T07:05:05;7.70;99.90
15700;DHT22;7950;42.744;23.174;2023-03-05T07:07:35;7.90;99.90
15700;DHT22;7950;42.744;23.174;2023-03-05T07:10:04;8.10;99.90
15700;DHT22;7950;42.744;23.174;2023-03-05T07:12:34;8.30;99.90
15700;DHT22;7950;42.744;23.174;2023-03-05T07:15:07;8.50;99.90
15700;DHT22;7950;42.744;23.174;2023-03-05T07:17:38;8.70;99.90
15700;DHT22;7950;42.744;23.174;2023-03-05T07:20:08;8.80;99.90
15700;DHT22;7950;42.744;23.174;2023-03-05T07:22:37;9.00;99.90
15700;DHT22;7950;42.744;23.174;2023-03-05T07:25:06;9.00;99.90
15700;DHT22;7950;42.744;23.174;2023-03-05T07:27:36;8.80;99.90
15700;DHT22;7950;42.744;23.174;2023-03-05T07:30:08;8.70;99.90
15700;DHT22;7950;42.744;23.174;2023-03-05T07:32:38;8.60;99.90
15700;DHT22;7950;42.744;23.174;2023-03-05T07:35:07;8.60;99.90
15700;DHT22;7950;42.744;23.174;2023-03-05T07:37:36;8.70;99.90
15700;DHT22;7950;42.744;23.174;2023-03-05T07:40:05;8.70;99.90
15700;DHT22;7950;42.744;23.174;2023-03-05T07:42:36;8.70;99.90
15700;DHT22;7950;42.744;23.174;2023-03-05T07:45:07;8.90;99.90
15700;DHT22;7950;42.744;23.174;2023-03-05T07:48:01;9.10;99.90
15700;DHT22;7950;42.744;23.174;2023-03-05T07:51:04;9.40;99.90
15700;DHT22;7950;42.744;23.174;2023-03-05T07:53:34;9.70;99.90
15700;DHT22;7950;42.744;23.174;2023-03-05T07:56:04;9.80;99.90
15700;DHT22;7950;42.744;23.174;2023-03-05T07:58:33;10.00;99.90
15700;DHT22;7950;42.744;23.174;2023-03-05T08:01:05;10.20;99.90
15700;DHT22;7950;42.744;23.174;2023-03-05T08:03:39;10.20;99.90
15700;DHT22;7950;42.744;23.174;2023-03-05T08:06:09;10.30;99.90
15700;DHT22;7950;42.744;23.174;2023-03-05T08:08:38;10.40;99.90
15700;DHT22;7950;42.744;23.174;2023-03-05T08:11:09;10.60;99.90
15700;DHT22;7950;42.744;23.174;2023-03-05T08:13:40;10.70;99.90
15700;DHT22;7950;42.744;23.174;2023-03-05T08:16:13;10.80;99.90
15700;DHT22;7950;42.744;23.174;2023-03-05T08:18:42;10.80;99.90
15700;DHT22;7950;42.744;23.174;2023-03-05T08:21:18;10.80;99.90
15700;DHT22;7950;42.744;23.174;2023-03-05T08:23:48;10.70;99.90
15700;DHT22;7950;42.744;23.174;2023-03-05T08:26:41;10.60;99.90
15700;DHT22;7950;42.744;23.174;2023-03-05T08:29:10;10.50;99.90
15700;DHT22;7950;42.744;23.174;2023-03-05T08:31:44;10.40;99.90
15700;DHT22;7950;42.744;23.174;2023-03-05T08:34:13;10.40;99.90
15700;DHT22;7950;42.744;23.174;2023-03-05T08:36:42;10.60;99.90
15700;DHT22;7950;42.744;23.174;2023-03-05T08:39:32;10.70;99.90
15700;DHT22;7950;42.744;23.174;2023-03-05T08:42:01;10.80;99.90
15700;DHT22;7950;42.744;23.174;2023-03-05T08:44:30;10.90;99.90
15700;DHT22;7950;42.744;23.174;2023-03-05T08:47:00;11.10;99.90
15700;DHT22;7950;42.744;23.174;2023-03-05T08:49:28;11.10;99.90
15700;DHT22;7950;42.744;23.174;2023-03-05T08:51:57;11.10;98.40
15700;DHT22;7950;42.744;23.174;2023-03-05T08:54:26;11.10;99.30
15700;DHT22;7950;42.744;23.174;2023-03-05T08:56:54;11.20;99.20
15700;DHT22;7950;42.744;23.174;2023-03-05T08:59:23;11.40;99.90
15700;DHT22;7950;42.744;23.174;2023-03-05T09:01:51;11.50;98.70
15700;DHT22;7950;42.744;23.174;2023-03-05T09:04:21;11.50;96.00
15700;DHT22;7950;42.744;23.174;2023-03-05T09:06:50;11.20;96.90
15700;DHT22;7950;42.744;23.174;2023-03-05T09:09:18;10.90;95.60
15700;DHT22;7950;42.744;23.174;2023-03-05T09:11:48;10.60;97.10
15700;DHT22;7950;42.744;23.174;2023-03-05T09:14:17;10.50;95.60
15700;DHT22;7950;42.744;23.174;2023-03-05T09:16:46;10.40;96.30
15700;DHT22;7950;42.744;23.174;2023-03-05T09:19:15;10.30;94.80
15700;DHT22;7950;42.744;23.174;2023-03-05T09:21:45;10.20;96.90
15700;DHT22;7950;42.744;23.174;2023-03-05T09:24:13;10.10;97.90
15700;DHT22;7950;42.744;23.174;2023-03-05T09:26:42;10.00;96.90
15700;DHT22;7950;42.744;23.174;2023-03-05T09:29:11;10.00;97.10
15700;DHT22;7950;42.744;23.174;2023-03-05T09:31:39;9.90;95.00
15700;DHT22;7950;42.744;23.174;2023-03-05T09:34:09;9.80;95.00
15700;DHT22;7950;42.744;23.174;2023-03-05T09:36:38;9.80;97.30
15700;DHT22;7950;42.744;23.174;2023-03-05T09:39:08;9.80;97.60
15700;DHT22;7950;42.744;23.174;2023-03-05T09:41:50;9.80;98.50
15700;DHT22;7950;42.744;23.174;2023-03-05T09:44:43;9.90;98.40
15700;DHT22;7950;42.744;23.174;2023-03-05T09:47:30;9.90;98.60
15700;DHT22;7950;42.744;23.174;2023-03-05T09:50:20;9.90;99.90
15700;DHT22;7950;42.744;23.174;2023-03-05T09:53:01;9.90;99.90
15700;DHT22;7950;42.744;23.174;2023-03-05T09:56:01;10.00;99.90
15700;DHT22;7950;42.744;23.174;2023-03-05T09:58:34;9.90;98.70
15700;DHT22;7950;42.744;23.174;2023-03-05T10:01:08;9.80;99.90
15700;DHT22;7950;42.744;23.174;2023-03-05T10:03:48;9.70;98.00
15700;DHT22;7950;42.744;23.174;2023-03-05T10:06:24;9.70;97.80
15700;DHT22;7950;42.744;23.174;2023-03-05T10:08:56;9.70;97.00
15700;DHT22;7950;42.744;23.174;2023-03-05T10:11:39;9.70;98.30
15700;DHT22;7950;42.744;23.174;2023-03-05T10:14:14;9.70;93.80
15700;DHT22;7950;42.744;23.174;2023-03-05T10:20:26;9.70;97.50
15700;DHT22;7950;42.744;23.174;2023-03-05T10:23:29;9.80;95.40
15700;DHT22;7950;42.744;23.174;2023-03-05T10:26:20;9.90;95.40
15700;DHT22;7950;42.744;23.174;2023-03-05T10:29:10;10.00;95.80
15700;DHT22;7950;42.744;23.174;2023-03-05T10:32:19;10.00;94.50
15700;DHT22;7950;42.744;23.174;2023-03-05T10:35:22;10.00;95.80
15700;DHT22;7950;42.744;23.174;2023-03-05T10:38:25;10.00;96.00
15700;DHT22;7950;42.744;23.174;2023-03-05T10:41:12;9.90;95.80
15700;DHT22;7950;42.744;23.174;2023-03-05T10:43:53;9.80;96.60
15700;DHT22;7950;42.744;23.174;2023-03-05T10:46:31;9.80;98.10
15700;DHT22;7950;42.744;23.174;2023-03-05T10:49:10;9.80;98.30
15700;DHT22;7950;42.744;23.174;2023-03-05T10:51:50;9.80;95.80
15700;DHT22;7950;42.744;23.174;2023-03-05T10:54:26;9.70;96.70
15700;DHT22;7950;42.744;23.174;2023-03-05T10:57:03;9.60;97.10
15700;DHT22;7950;42.744;23.174;2023-03-05T10:59:45;9.60;98.20
15700;DHT22;7950;42.744;23.174;2023-03-05T11:02:16;9.50;97.60
15700;DHT22;7950;42.744;23.174;2023-03-05T11:04:46;9.50;97.60
15700;DHT22;7950;42.744;23.174;2023-03-05T11:07:32;9.40;99.20
15700;DHT22;7950;42.744;23.174;2023-03-05T11:10:15;9.40;99.40
15700;DHT22;7950;42.744;23.174;2023-03-05T11:12:45;9.40;99.50
15700;DHT22;7950;42.744;23.174;2023-03-05T11:15:28;9.40;99.30
15700;DHT22;7950;42.744;23.174;2023-03-05T11:18:12;9.40;99.60
15700;DHT22;7950;42.744;23.174;2023-03-05T11:20:44;9.40;99.00
15700;DHT22;7950;42.744;23.174;2023-03-05T11:23:14;9.40;99.70
15700;DHT22;7950;42.744;23.174;2023-03-05T11:25:58;9.50;99.40
15700;DHT22;7950;42.744;23.174;2023-03-05T11:28:33;9.60;99.90
15700;DHT22;7950;42.744;23.174;2023-03-05T11:31:19;9.50;99.30
15700;DHT22;7950;42.744;23.174;2023-03-05T11:33:56;9.60;99.80
15700;DHT22;7950;42.744;23.174;2023-03-05T11:36:29;9.80;99.90
15700;DHT22;7950;42.744;23.174;2023-03-05T11:39:09;10.10;99.90
15700;DHT22;7950;42.744;23.174;2023-03-05T11:41:44;10.40;98.20
15700;DHT22;7950;42.744;23.174;2023-03-05T11:44:20;10.60;96.80
15700;DHT22;7950;42.744;23.174;2023-03-05T11:46:58;10.70;93.00
15700;DHT22;7950;42.744;23.174;2023-03-05T11:49:29;10.70;94.90
15700;DHT22;7950;42.744;23.174;2023-03-05T11:52:05;10.60;94.20
15700;DHT22;7950;42.744;23.174;2023-03-05T11:54:43;10.50;94.20
15700;DHT22;7950;42.744;23.174;2023-03-05T11:57:20;10.40;93.40
15700;DHT22;7950;42.744;23.174;2023-03-05T11:59:52;10.50;93.10
15700;DHT22;7950;42.744;23.174;2023-03-05T12:02:25;10.70;93.50
15700;DHT22;7950;42.744;23.174;2023-03-05T12:04:55;10.80;92.30
15700;DHT22;7950;42.744;23.174;2023-03-05T12:07:32;10.90;92.70
15700;DHT22;7950;42.744;23.174;2023-03-05T12:10:04;11.10;91.90
15700;DHT22;7950;42.744;23.174;2023-03-05T12:12:38;11.30;91.50
15700;DHT22;7950;42.744;23.174;2023-03-05T12:18:42;11.60;90.70
15700;DHT22;7950;42.744;23.174;2023-03-05T12:21:42;11.70;87.30
15700;DHT22;7950;42.744;23.174;2023-03-05T12:24:36;11.70;84.90
15700;DHT22;7950;42.744;23.174;2023-03-05T12:27:16;11.50;81.50
15700;DHT22;7950;42.744;23.174;2023-03-05T12:30:00;11.40;85.10
15700;DHT22;7950;42.744;23.174;2023-03-05T12:32:51;11.30;88.70
15700;DHT22;7950;42.744;23.174;2023-03-05T12:35:44;11.20;87.70
15700;DHT22;7950;42.744;23.174;2023-03-05T12:38:28;11.40;89.90
15700;DHT22;7950;42.744;23.174;2023-03-05T12:41:32;11.50;86.70
15700;DHT22;7950;42.744;23.174;2023-03-05T12:47:16;11.30;84.60
15700;DHT22;7950;42.744;23.174;2023-03-05T12:53:19;11.10;84.60
15700;DHT22;7950;42.744;23.174;2023-03-05T12:56:00;11.00;86.20
15700;DHT22;7950;42.744;23.174;2023-03-05T12:58:41;10.90;90.40
15700;DHT22;7950;42.744;23.174;2023-03-05T13:04:15;10.70;90.70
15700;DHT22;7950;42.744;23.174;2023-03-05T13:06:57;10.90;91.70
15700;DHT22;7950;42.744;23.174;2023-03-05T13:09:29;10.90;91.30
15700;DHT22;7950;42.744;23.174;2023-03-05T13:12:25;10.80;89.70
15700;DHT22;7950;42.744;23.174;2023-03-05T13:14:58;10.60;90.30
15700;DHT22;7950;42.744;23.174;2023-03-05T13:17:37;10.50;91.30
15700;DHT22;7950;42.744;23.174;2023-03-05T13:20:28;10.40;90.60
15700;DHT22;7950;42.744;23.174;2023-03-05T13:23:16;10.30;92.50
15700;DHT22;7950;42.744;23.174;2023-03-05T13:26:01;10.30;92.40
15700;DHT22;7950;42.744;23.174;2023-03-05T13:28:31;10.50;92.90
15700;DHT22;7950;42.744;23.174;2023-03-05T13:31:01;10.50;92.60
15700;DHT22;7950;42.744;23.174;2023-03-05T13:33:38;10.50;91.70
15700;DHT22;7950;42.744;23.174;2023-03-05T13:36:12;10.40;91.70
15700;DHT22;7950;42.744;23.174;2023-03-05T13:38:45;10.20;91.60
15700;DHT22;7950;42.744;23.174;2023-03-05T13:41:20;10.10;90.60
15700;DHT22;7950;42.744;23.174;2023-03-05T13:43:52;10.00;90.90
15700;DHT22;7950;42.744;23.174;2023-03-05T13:46:23;10.00;91.50
15700;DHT22;7950;42.744;23.174;2023-03-05T13:48:57;10.00;91.50
15700;DHT22;7950;42.744;23.174;2023-03-05T13:51:45;9.90;91.60
15700;DHT22;7950;42.744;23.174;2023-03-05T13:54:16;9.70;92.40
15700;DHT22;7950;42.744;23.174;2023-03-05T13:56:51;9.60;93.60
15700;DHT22;7950;42.744;23.174;2023-03-05T13:59:22;9.60;93.00
15700;DHT22;7950;42.744;23.174;2023-03-05T14:01:52;9.50;93.90
15700;DHT22;7950;42.744;23.174;2023-03-05T14:04:23;9.60;93.60
15700;DHT22;7950;42.744;23.174;2023-03-05T14:07:24;9.60;94.90
15700;DHT22;7950;42.744;23.174;2023-03-05T14:09:59;9.60;93.10
15700;DHT22;7950;42.744;23.174;2023-03-05T14:12:33;9.50;92.10
15700;DHT22;7950;42.744;23.174;2023-03-05T14:15:18;9.50;92.30
15700;DHT22;7950;42.744;23.174;2023-03-05T14:17:49;9.40;93.00
15700;DHT22;7950;42.744;23.174;2023-03-05T14:20:24;9.40;93.90
15700;DHT22;7950;42.744;23.174;2023-03-05T14:22:56;9.30;93.30
15700;DHT22;7950;42.744;23.174;2023-03-05T14:25:31;9.30;93.50
15700;DHT22;7950;42.744;23.174;2023-03-05T14:28:28;9.20;93.80
15700;DHT22;7950;42.744;23.174;2023-03-05T14:30:56;9.20;92.60
15700;DHT22;7950;42.744;23.174;2023-03-05T14:33:27;9.10;92.60
15700;DHT22;7950;42.744;23.174;2023-03-05T14:35:59;9.10;93.00
15700;DHT22;7950;42.744;23.174;2023-03-05T14:38:31;9.10;92.30
15700;DHT22;7950;42.744;23.174;2023-03-05T14:41:30;9.00;93.50
15700;DHT22;7950;42.744;23.174;2023-03-05T14:44:12;9.00;93.50
15700;DHT22;7950;42.744;23.174;2023-03-05T14:46:46;9.00;94.10
15700;DHT22;7950;42.744;23.174;2023-03-05T14:49:16;9.00;94.00
15700;DHT22;7950;42.744;23.174;2023-03-05T14:51:45;9.00;94.90
15700;DHT22;7950;42.744;23.174;2023-03-05T14:54:39;9.00;94.90
15700;DHT22;7950;42.744;23.174;2023-03-05T14:57:14;8.90;95.20
15700;DHT22;7950;42.744;23.174;2023-03-05T14:59:45;8.80;96.80
15700;DHT22;7950;42.744;23.174;2023-03-05T15:02:15;8.80;96.50
15700;DHT22;7950;42.744;23.174;2023-03-05T15:04:46;8.80;96.70
15700;DHT22;7950;42.744;23.174;2023-03-05T15:07:19;8.80;95.80
15700;DHT22;7950;42.744;23.174;2023-03-05T15:09:51;8.70;95.60
15700;DHT22;7950;42.744;23.174;2023-03-05T15:12:21;8.60;94.50
15700;DHT22;7950;42.744;23.174;2023-03-05T15:14:51;8.60;93.20
15700;DHT22;7950;42.744;23.174;2023-03-05T15:17:23;8.50;92.80
15700;DHT22;7950;42.744;23.174;2023-03-05T15:19:57;8.40;94.50
15700;DHT22;7950;42.744;23.174;2023-03-05T15:22:26;8.30;94.70
15700;DHT22;7950;42.744;23.174;2023-03-05T15:24:55;8.30;95.20
15700;DHT22;7950;42.744;23.174;2023-03-05T15:27:25;8.30;96.90
15700;DHT22;7950;42.744;23.174;2023-03-05T15:29:53;8.30;96.40
15700;DHT22;7950;42.744;23.174;2023-03-05T15:32:22;8.20;97.30
15700;DHT22;7950;42.744;23.174;2023-03-05T15:34:53;8.20;98.40
15700;DHT22;7950;42.744;23.174;2023-03-05T15:37:21;8.20;98.60
15700;DHT22;7950;42.744;23.174;2023-03-05T15:39:51;8.10;98.00
15700;DHT22;7950;42.744;23.174;2023-03-05T15:42:20;8.10;98.60
15700;DHT22;7950;42.744;23.174;2023-03-05T15:44:50;8.00;99.60
15700;DHT22;7950;42.744;23.174;2023-03-05T15:47:18;7.90;99.90
15700;DHT22;7950;42.744;23.174;2023-03-05T15:49:47;7.90;99.90
15700;DHT22;7950;42.744;23.174;2023-03-05T15:53:01;7.80;99.90
15700;DHT22;7950;42.744;23.174;2023-03-05T15:55:29;7.70;99.90
15700;DHT22;7950;42.744;23.174;2023-03-05T15:57:58;7.70;99.90
15700;DHT22;7950;42.744;23.174;2023-03-05T16:00:29;7.70;99.90
15700;DHT22;7950;42.744;23.174;2023-03-05T16:02:59;7.70;99.90
15700;DHT22;7950;42.744;23.174;2023-03-05T16:05:27;7.60;99.90
15700;DHT22;7950;42.744;23.174;2023-03-05T16:07:56;7.60;99.90
15700;DHT22;7950;42.744;23.174;2023-03-05T16:10:27;7.50;99.90
15700;DHT22;7950;42.744;23.174;2023-03-05T16:13:01;7.50;99.90
15700;DHT22;7950;42.744;23.174;2023-03-05T16:15:32;7.50;99.90
15700;DHT22;7950;42.744;23.174;2023-03-05T16:18:05;7.40;99.90
15700;DHT22;7950;42.744;23.174;2023-03-05T16:21:02;7.30;99.90
15700;DHT22;7950;42.744;23.174;2023-03-05T16:23:31;7.20;99.90
15700;DHT22;7950;42.744;23.174;2023-03-05T16:25:59;7.20;99.90
15700;DHT22;7950;42.744;23.174;2023-03-05T16:28:28;7.10;99.90
15700;DHT22;7950;42.744;23.174;2023-03-05T16:30:58;7.10;99.90
15700;DHT22;7950;42.744;23.174;2023-03-05T16:33:26;7.00;99.90
15700;DHT22;7950;42.744;23.174;2023-03-05T16:36:17;7.10;99.90
15700;DHT22;7950;42.744;23.174;2023-03-05T16:38:48;7.00;99.90
15700;DHT22;7950;42.744;23.174;2023-03-05T16:41:19;6.90;99.90
15700;DHT22;7950;42.744;23.174;2023-03-05T16:43:50;6.90;99.90
15700;DHT22;7950;42.744;23.174;2023-03-05T16:46:25;6.90;99.90